DLH1420 KBRO-KDAB
Flight info
| Callsign | DLH1420 |
|---|---|
| Flight time | 2h 4m |
| Altitude | 37000 |
| Route | CATFS BLVNS OMN |
| Aircraft | A346/H-SDE2E3FGHIJ3J4J5M1RWXY/LB1D1 |
Departure
| Time | 2026-05-03 23:55 |
|---|---|
| Airport | Brownsville South Padre Island International Airport (KBRO) |
Arrival
| Time | 2026-05-04 01:59 |
|---|---|
| Airport | Daytona Beach International Airport (KDAB) |
| Time | Latitude | Longitude | Altitude | Speed | Heading |
|---|---|---|---|---|---|
| 2026-05-03 23:15 | 25.90611 | -97.43173 | 57 ft | 0 kts | 272° |
| 2026-05-03 23:22 | 25.90611 | -97.43178 | 38 ft | 0 kts | 272° |
| 2026-05-03 23:27 | 25.90610 | -97.43164 | 38 ft | 4 kts | 279° |
| 2026-05-03 23:27 | 25.90602 | -97.43137 | 36 ft | 4 kts | 296° |
| 2026-05-03 23:28 | 25.90592 | -97.43112 | 36 ft | 2 kts | 287° |
| 2026-05-03 23:28 | 25.90585 | -97.43092 | 37 ft | 4 kts | 306° |
| 2026-05-03 23:28 | 25.90569 | -97.43077 | 36 ft | 4 kts | 339° |
| 2026-05-03 23:28 | 25.90546 | -97.43073 | 38 ft | 4 kts | 2° |
| 2026-05-03 23:29 | 25.90519 | -97.43076 | 38 ft | 4 kts | 5° |
| 2026-05-03 23:29 | 25.90502 | -97.43077 | 36 ft | 1 kts | 2° |
| 2026-05-03 23:29 | 25.90499 | -97.43077 | 37 ft | 0 kts | 2° |
| 2026-05-03 23:51 | 25.90500 | -97.43077 | 39 ft | 0 kts | 2° |
| 2026-05-03 23:51 | 25.90512 | -97.43077 | 39 ft | 6 kts | 2° |
| 2026-05-03 23:51 | 25.90588 | -97.43074 | 39 ft | 13 kts | 1° |
| 2026-05-03 23:52 | 25.90685 | -97.43071 | 39 ft | 15 kts | 2° |
| 2026-05-03 23:52 | 25.90792 | -97.43066 | 38 ft | 16 kts | 2° |
| 2026-05-03 23:52 | 25.90914 | -97.43061 | 38 ft | 19 kts | 2° |
| 2026-05-03 23:52 | 25.91052 | -97.43069 | 38 ft | 20 kts | 333° |
| 2026-05-03 23:53 | 25.91157 | -97.43140 | 37 ft | 17 kts | 352° |
| 2026-05-03 23:53 | 25.91250 | -97.43142 | 36 ft | 7 kts | 17° |
| 2026-05-03 23:53 | 25.91254 | -97.43115 | 36 ft | 2 kts | 124° |
| 2026-05-03 23:53 | 25.91249 | -97.43108 | 36 ft | 0 kts | 135° |
| 2026-05-03 23:54 | 25.91248 | -97.43107 | 36 ft | 0 kts | 131° |
| 2026-05-03 23:54 | 25.91143 | -97.42983 | 37 ft | 61 kts | 134° |
| 2026-05-03 23:54 | 25.90646 | -97.42441 | 37 ft | 137 kts | 136° |
| 2026-05-03 23:54 | 25.89830 | -97.41566 | 272 ft | 176 kts | 133° |
| 2026-05-03 23:55 | 25.88959 | -97.40616 | 1177 ft | 179 kts | 131° |
| 2026-05-03 23:55 | 25.88033 | -97.39591 | 1851 ft | 199 kts | 129° |
| 2026-05-03 23:55 | 25.87304 | -97.38210 | 2076 ft | 221 kts | 101° |
| 2026-05-03 23:55 | 25.87226 | -97.36415 | 2120 ft | 240 kts | 86° |
| 2026-05-03 23:56 | 25.87383 | -97.34537 | 2123 ft | 245 kts | 84° |
| 2026-05-03 23:56 | 25.87684 | -97.32656 | 2038 ft | 247 kts | 76° |
| 2026-05-03 23:56 | 25.88250 | -97.30854 | 1844 ft | 247 kts | 70° |
| 2026-05-03 23:56 | 25.88911 | -97.29098 | 1590 ft | 244 kts | 69° |
| 2026-05-03 23:57 | 25.89567 | -97.27359 | 1343 ft | 244 kts | 70° |
| 2026-05-03 23:57 | 25.90172 | -97.25614 | 1107 ft | 239 kts | 71° |
| 2026-05-03 23:57 | 25.90758 | -97.23913 | 998 ft | 232 kts | 71° |
| 2026-05-03 23:57 | 25.91329 | -97.22255 | 846 ft | 226 kts | 71° |
| 2026-05-03 23:58 | 25.91880 | -97.20650 | 736 ft | 219 kts | 70° |
| 2026-05-03 23:58 | 25.92681 | -97.19239 | 589 ft | 214 kts | 47° |
| 2026-05-03 23:58 | 25.93789 | -97.18184 | 545 ft | 204 kts | 34° |
| 2026-05-03 23:58 | 25.95013 | -97.17470 | 521 ft | 190 kts | 28° |
| 2026-05-03 23:59 | 25.96162 | -97.16871 | 472 ft | 175 kts | 27° |
| 2026-05-03 23:59 | 25.97258 | -97.16321 | 475 ft | 170 kts | 27° |
| 2026-05-03 23:59 | 25.98349 | -97.15771 | 472 ft | 173 kts | 28° |
| 2026-05-03 23:59 | 25.99449 | -97.15218 | 476 ft | 172 kts | 28° |
| 2026-05-04 00:00 | 26.00528 | -97.14673 | 455 ft | 173 kts | 28° |
| 2026-05-04 00:00 | 26.01642 | -97.14124 | 488 ft | 181 kts | 27° |
| 2026-05-04 00:00 | 26.02846 | -97.13500 | 570 ft | 204 kts | 28° |
| 2026-05-04 00:00 | 26.04006 | -97.12520 | 637 ft | 225 kts | 61° |
| 2026-05-04 00:01 | 26.04632 | -97.10849 | 1188 ft | 239 kts | 74° |
| 2026-05-04 00:01 | 26.05137 | -97.09066 | 1944 ft | 248 kts | 73° |
| 2026-05-04 00:01 | 26.05662 | -97.07240 | 2948 ft | 247 kts | 74° |
| 2026-05-04 00:01 | 26.06219 | -97.05419 | 3812 ft | 252 kts | 73° |
| 2026-05-04 00:02 | 26.06811 | -97.03525 | 4468 ft | 264 kts | 72° |
| 2026-05-04 00:02 | 26.07447 | -97.01554 | 5144 ft | 273 kts | 73° |
| 2026-05-04 00:02 | 26.08103 | -96.99534 | 5881 ft | 280 kts | 71° |
| 2026-05-04 00:02 | 26.08782 | -96.97477 | 6628 ft | 287 kts | 71° |
| 2026-05-04 00:03 | 26.09485 | -96.95369 | 7308 ft | 293 kts | 70° |
| 2026-05-04 00:03 | 26.10196 | -96.93237 | 8067 ft | 295 kts | 70° |
| 2026-05-04 00:03 | 26.10919 | -96.91076 | 8836 ft | 299 kts | 69° |
| 2026-05-04 00:03 | 26.11646 | -96.88906 | 9567 ft | 302 kts | 69° |
| 2026-05-04 00:04 | 26.12384 | -96.86705 | 10294 ft | 304 kts | 68° |
| 2026-05-04 00:04 | 26.13143 | -96.84440 | 10751 ft | 317 kts | 68° |
| 2026-05-04 00:04 | 26.13937 | -96.82081 | 11067 ft | 334 kts | 68° |
| 2026-05-04 00:04 | 26.14774 | -96.79594 | 11370 ft | 351 kts | 68° |
| 2026-05-04 00:05 | 26.15651 | -96.76981 | 11654 ft | 368 kts | 68° |
| 2026-05-04 00:05 | 26.16568 | -96.74246 | 11936 ft | 384 kts | 68° |
| 2026-05-04 00:05 | 26.17521 | -96.71396 | 12246 ft | 400 kts | 67° |
| 2026-05-04 00:05 | 26.18500 | -96.68459 | 12755 ft | 407 kts | 67° |
| 2026-05-04 00:06 | 26.19489 | -96.65484 | 13415 ft | 412 kts | 66° |
| 2026-05-04 00:06 | 26.20492 | -96.62470 | 14034 ft | 416 kts | 66° |
| 2026-05-04 00:06 | 26.21508 | -96.59421 | 14568 ft | 422 kts | 66° |
| 2026-05-04 00:06 | 26.22536 | -96.56340 | 15114 ft | 426 kts | 66° |
| 2026-05-04 00:07 | 26.23576 | -96.53223 | 15665 ft | 431 kts | 66° |
| 2026-05-04 00:07 | 26.24625 | -96.50071 | 16214 ft | 435 kts | 66° |
| 2026-05-04 00:07 | 26.25683 | -96.46888 | 16752 ft | 440 kts | 66° |
| 2026-05-04 00:07 | 26.26753 | -96.43667 | 17285 ft | 445 kts | 66° |
| 2026-05-04 00:08 | 26.27818 | -96.40456 | 17798 ft | 449 kts | 66° |
| 2026-05-04 00:08 | 26.28907 | -96.37169 | 18327 ft | 454 kts | 66° |
| 2026-05-04 00:08 | 26.30005 | -96.33852 | 18786 ft | 458 kts | 66° |
| 2026-05-04 00:08 | 26.31112 | -96.30503 | 19207 ft | 462 kts | 66° |
| 2026-05-04 00:09 | 26.32230 | -96.27116 | 19631 ft | 467 kts | 66° |
| 2026-05-04 00:09 | 26.33361 | -96.23691 | 20047 ft | 472 kts | 66° |
| 2026-05-04 00:09 | 26.34498 | -96.20244 | 20474 ft | 476 kts | 66° |
| 2026-05-04 00:09 | 26.35646 | -96.16762 | 20888 ft | 480 kts | 65° |
| 2026-05-04 00:10 | 26.36806 | -96.13239 | 21296 ft | 485 kts | 65° |
| 2026-05-04 00:10 | 26.37971 | -96.09696 | 21708 ft | 489 kts | 65° |
| 2026-05-04 00:10 | 26.39150 | -96.06108 | 22123 ft | 493 kts | 65° |
| 2026-05-04 00:10 | 26.40335 | -96.02500 | 22504 ft | 497 kts | 65° |
| 2026-05-04 00:11 | 26.41528 | -95.98865 | 22886 ft | 501 kts | 65° |
| 2026-05-04 00:11 | 26.42734 | -95.95184 | 23282 ft | 506 kts | 65° |
| 2026-05-04 00:11 | 26.43946 | -95.91482 | 23660 ft | 510 kts | 65° |
| 2026-05-04 00:11 | 26.45167 | -95.87750 | 23990 ft | 513 kts | 65° |
| 2026-05-04 00:12 | 26.46394 | -95.83992 | 24324 ft | 516 kts | 65° |
| 2026-05-04 00:12 | 26.47628 | -95.80214 | 24696 ft | 519 kts | 65° |
| 2026-05-04 00:12 | 26.48867 | -95.76414 | 25077 ft | 521 kts | 65° |
| 2026-05-04 00:12 | 26.50110 | -95.72597 | 25436 ft | 524 kts | 65° |
| 2026-05-04 00:13 | 26.51354 | -95.68769 | 25817 ft | 526 kts | 65° |
| 2026-05-04 00:13 | 26.52609 | -95.64905 | 26155 ft | 530 kts | 65° |
| 2026-05-04 00:13 | 26.53871 | -95.61022 | 26506 ft | 532 kts | 65° |
| 2026-05-04 00:13 | 26.55139 | -95.57115 | 26871 ft | 535 kts | 65° |
| 2026-05-04 00:14 | 26.56408 | -95.53201 | 27245 ft | 538 kts | 65° |
| 2026-05-04 00:14 | 26.57684 | -95.49260 | 27611 ft | 540 kts | 65° |
| 2026-05-04 00:14 | 26.58964 | -95.45301 | 28058 ft | 540 kts | 65° |
| 2026-05-04 00:14 | 26.60236 | -95.41357 | 28635 ft | 538 kts | 65° |
| 2026-05-04 00:15 | 26.61490 | -95.37462 | 29216 ft | 536 kts | 65° |
| 2026-05-04 00:15 | 26.62752 | -95.33541 | 29777 ft | 535 kts | 64° |
| 2026-05-04 00:15 | 26.64010 | -95.29632 | 30316 ft | 534 kts | 64° |
| 2026-05-04 00:15 | 26.65263 | -95.25733 | 30794 ft | 532 kts | 64° |
| 2026-05-04 00:16 | 26.66514 | -95.21833 | 31310 ft | 530 kts | 64° |
| 2026-05-04 00:16 | 26.67759 | -95.17946 | 31848 ft | 527 kts | 64° |
| 2026-05-04 00:16 | 26.68993 | -95.14091 | 32420 ft | 524 kts | 63° |
| 2026-05-04 00:16 | 26.70218 | -95.10264 | 32967 ft | 521 kts | 63° |
| 2026-05-04 00:17 | 26.71437 | -95.06452 | 33503 ft | 518 kts | 63° |
| 2026-05-04 00:17 | 26.72649 | -95.02659 | 34023 ft | 516 kts | 63° |
| 2026-05-04 00:17 | 26.73855 | -94.98885 | 34467 ft | 514 kts | 63° |
| 2026-05-04 00:17 | 26.75056 | -94.95124 | 34857 ft | 513 kts | 63° |
| 2026-05-04 00:18 | 26.76257 | -94.91360 | 35185 ft | 513 kts | 62° |
| 2026-05-04 00:18 | 26.77461 | -94.87585 | 35480 ft | 514 kts | 62° |
| 2026-05-04 00:18 | 26.78646 | -94.83868 | 35727 ft | 515 kts | 62° |
| 2026-05-04 00:18 | 26.79852 | -94.80078 | 35976 ft | 518 kts | 62° |
| 2026-05-04 00:19 | 26.81048 | -94.76316 | 36175 ft | 520 kts | 63° |
| 2026-05-04 00:19 | 26.82267 | -94.72471 | 36390 ft | 522 kts | 63° |
| 2026-05-04 00:19 | 26.83482 | -94.68635 | 36614 ft | 523 kts | 63° |
| 2026-05-04 00:19 | 26.84705 | -94.64768 | 36834 ft | 524 kts | 63° |
| 2026-05-04 00:20 | 26.85927 | -94.60899 | 37039 ft | 525 kts | 63° |
| 2026-05-04 00:20 | 26.87150 | -94.57025 | 37154 ft | 529 kts | 63° |
| 2026-05-04 00:20 | 26.89636 | -94.49153 | 37144 ft | 541 kts | 63° |
| 2026-05-04 00:21 | 26.92158 | -94.41131 | 37140 ft | 547 kts | 63° |
| 2026-05-04 00:21 | 26.94681 | -94.33068 | 37140 ft | 548 kts | 63° |
| 2026-05-04 00:22 | 26.97202 | -94.25005 | 37139 ft | 548 kts | 63° |
| 2026-05-04 00:22 | 26.99724 | -94.16926 | 37145 ft | 548 kts | 63° |
| 2026-05-04 00:23 | 27.02242 | -94.08849 | 37140 ft | 549 kts | 63° |
| 2026-05-04 00:23 | 27.04760 | -94.00755 | 37139 ft | 549 kts | 63° |
| 2026-05-04 00:24 | 27.07271 | -93.92661 | 37142 ft | 549 kts | 63° |
| 2026-05-04 00:24 | 27.09558 | -93.84445 | 37143 ft | 553 kts | 68° |
| 2026-05-04 00:25 | 27.11593 | -93.76094 | 37141 ft | 554 kts | 68° |
| 2026-05-04 00:25 | 27.13600 | -93.67778 | 37158 ft | 554 kts | 68° |
| 2026-05-04 00:26 | 27.15638 | -93.59367 | 37148 ft | 554 kts | 68° |
| 2026-05-04 00:26 | 27.17661 | -93.51020 | 37143 ft | 554 kts | 68° |
| 2026-05-04 00:27 | 27.19685 | -93.42655 | 37149 ft | 554 kts | 68° |
| 2026-05-04 00:27 | 27.21719 | -93.34231 | 37145 ft | 554 kts | 68° |
| 2026-05-04 00:28 | 27.23734 | -93.25856 | 37145 ft | 554 kts | 68° |
| 2026-05-04 00:28 | 27.25744 | -93.17479 | 37147 ft | 554 kts | 68° |
| 2026-05-04 00:29 | 27.27753 | -93.09086 | 37148 ft | 554 kts | 68° |
| 2026-05-04 00:29 | 27.29755 | -93.00697 | 37155 ft | 555 kts | 68° |
| 2026-05-04 00:30 | 27.31752 | -92.92302 | 37150 ft | 556 kts | 68° |
| 2026-05-04 00:30 | 27.33748 | -92.83888 | 37146 ft | 556 kts | 68° |
| 2026-05-04 00:31 | 27.35724 | -92.75533 | 37145 ft | 556 kts | 68° |
| 2026-05-04 00:31 | 27.37708 | -92.67119 | 37156 ft | 556 kts | 68° |
| 2026-05-04 00:32 | 27.39694 | -92.58683 | 37149 ft | 557 kts | 69° |
| 2026-05-04 00:32 | 27.41337 | -92.51673 | 37148 ft | 557 kts | 69° |
| 2026-05-04 00:33 | 27.44300 | -92.38992 | 37147 ft | 557 kts | 69° |
| 2026-05-04 00:34 | 27.46268 | -92.30538 | 37176 ft | 557 kts | 69° |
| 2026-05-04 00:34 | 27.48233 | -92.22077 | 37158 ft | 558 kts | 69° |
| 2026-05-04 00:35 | 27.50195 | -92.13607 | 37147 ft | 558 kts | 69° |
| 2026-05-04 00:35 | 27.52151 | -92.05130 | 37144 ft | 558 kts | 69° |
| 2026-05-04 00:36 | 27.54102 | -91.96652 | 37145 ft | 558 kts | 69° |
| 2026-05-04 00:36 | 27.56036 | -91.88224 | 37167 ft | 559 kts | 69° |
| 2026-05-04 00:37 | 27.57993 | -91.79675 | 37148 ft | 559 kts | 69° |
| 2026-05-04 00:37 | 27.59921 | -91.71222 | 37153 ft | 559 kts | 69° |
| 2026-05-04 00:38 | 27.61858 | -91.62700 | 37149 ft | 559 kts | 69° |
| 2026-05-04 00:38 | 27.63788 | -91.54189 | 37150 ft | 559 kts | 69° |
| 2026-05-04 00:39 | 27.65717 | -91.45660 | 37154 ft | 561 kts | 69° |
| 2026-05-04 00:39 | 27.67648 | -91.37089 | 37151 ft | 562 kts | 69° |
| 2026-05-04 00:40 | 27.69569 | -91.28535 | 37150 ft | 562 kts | 69° |
| 2026-05-04 00:40 | 27.71483 | -91.19982 | 37150 ft | 562 kts | 69° |
| 2026-05-04 00:41 | 27.73398 | -91.11405 | 37162 ft | 563 kts | 70° |
| 2026-05-04 00:41 | 27.75310 | -91.02818 | 37152 ft | 564 kts | 70° |
| 2026-05-04 00:42 | 27.77218 | -90.94214 | 37155 ft | 564 kts | 70° |
| 2026-05-04 00:42 | 27.79109 | -90.85659 | 37153 ft | 564 kts | 70° |
| 2026-05-04 00:43 | 27.81008 | -90.77044 | 37148 ft | 564 kts | 70° |
| 2026-05-04 00:43 | 27.82911 | -90.68400 | 37152 ft | 567 kts | 70° |
| 2026-05-04 00:44 | 27.84809 | -90.59731 | 37150 ft | 568 kts | 70° |
| 2026-05-04 00:44 | 27.86703 | -90.51052 | 37151 ft | 568 kts | 70° |
| 2026-05-04 00:45 | 27.88593 | -90.42362 | 37147 ft | 568 kts | 70° |
| 2026-05-04 00:45 | 27.90468 | -90.33731 | 37164 ft | 570 kts | 70° |
| 2026-05-04 00:46 | 27.92357 | -90.25003 | 37156 ft | 571 kts | 70° |
| 2026-05-04 00:46 | 27.94238 | -90.16264 | 37151 ft | 571 kts | 71° |
| 2026-05-04 00:47 | 27.96117 | -90.07513 | 37152 ft | 571 kts | 71° |
| 2026-05-04 00:47 | 27.97989 | -89.98771 | 37175 ft | 571 kts | 71° |
| 2026-05-04 00:48 | 27.99868 | -89.89989 | 37155 ft | 575 kts | 71° |
| 2026-05-04 00:48 | 28.01737 | -89.81188 | 37150 ft | 575 kts | 71° |
| 2026-05-04 00:49 | 28.03605 | -89.72368 | 37150 ft | 575 kts | 71° |
| 2026-05-04 00:49 | 28.05458 | -89.63597 | 37165 ft | 575 kts | 71° |
| 2026-05-04 00:50 | 28.07310 | -89.54799 | 37178 ft | 575 kts | 71° |
| 2026-05-04 00:50 | 28.09173 | -89.45917 | 37155 ft | 575 kts | 71° |
| 2026-05-04 00:51 | 28.11027 | -89.37054 | 37153 ft | 575 kts | 71° |
| 2026-05-04 00:51 | 28.12870 | -89.28218 | 37151 ft | 575 kts | 71° |
| 2026-05-04 00:52 | 28.14710 | -89.19375 | 37162 ft | 577 kts | 71° |
| 2026-05-04 00:52 | 28.16548 | -89.10499 | 37153 ft | 578 kts | 72° |
| 2026-05-04 00:53 | 28.18383 | -89.01593 | 37150 ft | 578 kts | 72° |
| 2026-05-04 00:53 | 28.20207 | -88.92711 | 37150 ft | 578 kts | 72° |
| 2026-05-04 00:54 | 28.22016 | -88.83885 | 37159 ft | 579 kts | 72° |
| 2026-05-04 00:54 | 28.23844 | -88.74960 | 37149 ft | 582 kts | 72° |
| 2026-05-04 00:55 | 28.25666 | -88.65988 | 37148 ft | 582 kts | 72° |
| 2026-05-04 00:55 | 28.27482 | -88.57019 | 37145 ft | 582 kts | 72° |
| 2026-05-04 00:56 | 28.29293 | -88.48052 | 37145 ft | 582 kts | 72° |
| 2026-05-04 00:56 | 28.31109 | -88.39065 | 37147 ft | 585 kts | 73° |
| 2026-05-04 00:57 | 28.32916 | -88.30044 | 37145 ft | 585 kts | 73° |
| 2026-05-04 00:57 | 28.34718 | -88.21014 | 37144 ft | 585 kts | 73° |
| 2026-05-04 00:58 | 28.36518 | -88.11990 | 37170 ft | 584 kts | 73° |
| 2026-05-04 00:58 | 28.38288 | -88.02985 | 37148 ft | 586 kts | 76° |
| 2026-05-04 00:59 | 28.39779 | -87.93856 | 37145 ft | 587 kts | 77° |
| 2026-05-04 00:59 | 28.41205 | -87.84700 | 37146 ft | 587 kts | 77° |
| 2026-05-04 01:00 | 28.42634 | -87.75554 | 37145 ft | 587 kts | 77° |
| 2026-05-04 01:00 | 28.44074 | -87.66405 | 37156 ft | 588 kts | 77° |
| 2026-05-04 01:01 | 28.45515 | -87.57216 | 37149 ft | 589 kts | 78° |
| 2026-05-04 01:01 | 28.46944 | -87.48033 | 37143 ft | 589 kts | 78° |
| 2026-05-04 01:02 | 28.48369 | -87.38842 | 37142 ft | 589 kts | 78° |
| 2026-05-04 01:02 | 28.49789 | -87.29661 | 37147 ft | 590 kts | 78° |
| 2026-05-04 01:03 | 28.51209 | -87.20443 | 37142 ft | 591 kts | 78° |
| 2026-05-04 01:03 | 28.52619 | -87.11210 | 37145 ft | 591 kts | 78° |
| 2026-05-04 01:04 | 28.54019 | -87.02013 | 37139 ft | 591 kts | 78° |
| 2026-05-04 01:04 | 28.55417 | -86.92791 | 37119 ft | 592 kts | 79° |
| 2026-05-04 01:05 | 28.56819 | -86.83528 | 37134 ft | 594 kts | 79° |
| 2026-05-04 01:05 | 28.58209 | -86.74253 | 37136 ft | 594 kts | 79° |
| 2026-05-04 01:06 | 28.59594 | -86.64978 | 37140 ft | 594 kts | 79° |
| 2026-05-04 01:06 | 28.60974 | -86.55693 | 37135 ft | 594 kts | 79° |
| 2026-05-04 01:07 | 28.62356 | -86.46400 | 37175 ft | 594 kts | 79° |
| 2026-05-04 01:07 | 28.63718 | -86.37128 | 37138 ft | 592 kts | 79° |
| 2026-05-04 01:08 | 28.65073 | -86.27866 | 37139 ft | 592 kts | 80° |
| 2026-05-04 01:08 | 28.66422 | -86.18613 | 37135 ft | 592 kts | 80° |
| 2026-05-04 01:09 | 28.67766 | -86.09393 | 37128 ft | 594 kts | 80° |
| 2026-05-04 01:09 | 28.69108 | -86.00088 | 37132 ft | 594 kts | 80° |
| 2026-05-04 01:10 | 28.70441 | -85.90796 | 37135 ft | 594 kts | 80° |
| 2026-05-04 01:10 | 28.71771 | -85.81492 | 37133 ft | 594 kts | 81° |
| 2026-05-04 01:11 | 28.73096 | -85.72179 | 37134 ft | 594 kts | 81° |
| 2026-05-04 01:11 | 28.74413 | -85.62868 | 37134 ft | 594 kts | 81° |
| 2026-05-04 01:12 | 28.75724 | -85.53562 | 37131 ft | 594 kts | 81° |
| 2026-05-04 01:12 | 28.77023 | -85.44287 | 37132 ft | 594 kts | 81° |
| 2026-05-04 01:13 | 28.78330 | -85.34938 | 37130 ft | 595 kts | 81° |
| 2026-05-04 01:13 | 28.79627 | -85.25578 | 37128 ft | 596 kts | 81° |
| 2026-05-04 01:14 | 28.80912 | -85.16238 | 37131 ft | 596 kts | 81° |
| 2026-05-04 01:14 | 28.82195 | -85.06882 | 37128 ft | 596 kts | 81° |
| 2026-05-04 01:15 | 28.83476 | -84.97523 | 37126 ft | 597 kts | 82° |
| 2026-05-04 01:15 | 28.84749 | -84.88138 | 37127 ft | 598 kts | 82° |
| 2026-05-04 01:16 | 28.86015 | -84.78755 | 37169 ft | 597 kts | 82° |
| 2026-05-04 01:16 | 28.87271 | -84.69402 | 37128 ft | 595 kts | 82° |
| 2026-05-04 01:17 | 28.88515 | -84.60119 | 37116 ft | 596 kts | 82° |
| 2026-05-04 01:17 | 28.89761 | -84.50733 | 37116 ft | 597 kts | 82° |
| 2026-05-04 01:18 | 28.90999 | -84.41353 | 37120 ft | 597 kts | 82° |
| 2026-05-04 01:18 | 28.92232 | -84.31964 | 37112 ft | 597 kts | 82° |
| 2026-05-04 01:19 | 28.93466 | -84.22552 | 37114 ft | 599 kts | 83° |
| 2026-05-04 01:19 | 28.94691 | -84.13120 | 37108 ft | 600 kts | 83° |
| 2026-05-04 01:20 | 28.95909 | -84.03686 | 37109 ft | 600 kts | 83° |
| 2026-05-04 01:20 | 28.97120 | -83.94257 | 37104 ft | 600 kts | 83° |
| 2026-05-04 01:21 | 28.98331 | -83.84804 | 37100 ft | 601 kts | 83° |
| 2026-05-04 01:21 | 28.99535 | -83.75327 | 37104 ft | 602 kts | 83° |
| 2026-05-04 01:22 | 29.00529 | -83.67448 | 37105 ft | 602 kts | 83° |
| 2026-05-04 01:22 | 29.01720 | -83.57966 | 37103 ft | 602 kts | 83° |
| 2026-05-04 01:23 | 29.03103 | -83.46936 | 37090 ft | 603 kts | 84° |
| 2026-05-04 01:23 | 29.04092 | -83.38961 | 37092 ft | 604 kts | 84° |
| 2026-05-04 01:24 | 29.05266 | -83.29440 | 37097 ft | 604 kts | 84° |
| 2026-05-04 01:24 | 29.06368 | -83.19973 | 37059 ft | 601 kts | 85° |
| 2026-05-04 01:24 | 29.06900 | -83.15248 | 36649 ft | 596 kts | 85° |
| 2026-05-04 01:25 | 29.07435 | -83.10508 | 35971 ft | 597 kts | 85° |
| 2026-05-04 01:25 | 29.07961 | -83.05802 | 35288 ft | 596 kts | 85° |
| 2026-05-04 01:25 | 29.08488 | -83.01109 | 34699 ft | 593 kts | 84° |
| 2026-05-04 01:25 | 29.09014 | -82.96438 | 34058 ft | 589 kts | 84° |
| 2026-05-04 01:26 | 29.09537 | -82.91803 | 32820 ft | 585 kts | 84° |
| 2026-05-04 01:26 | 29.10054 | -82.87196 | 31512 ft | 581 kts | 84° |
| 2026-05-04 01:26 | 29.10566 | -82.82628 | 30223 ft | 576 kts | 84° |
| 2026-05-04 01:26 | 29.11075 | -82.78087 | 28620 ft | 573 kts | 84° |
| 2026-05-04 01:27 | 29.11579 | -82.73595 | 27544 ft | 561 kts | 84° |
| 2026-05-04 01:27 | 29.12070 | -82.69208 | 26677 ft | 547 kts | 84° |
| 2026-05-04 01:27 | 29.12545 | -82.64942 | 25927 ft | 532 kts | 84° |
| 2026-05-04 01:27 | 29.13005 | -82.60782 | 24998 ft | 522 kts | 84° |
| 2026-05-04 01:28 | 29.13457 | -82.56679 | 23893 ft | 518 kts | 85° |
| 2026-05-04 01:28 | 29.13903 | -82.52611 | 22799 ft | 511 kts | 85° |
| 2026-05-04 01:28 | 29.14343 | -82.48594 | 21748 ft | 502 kts | 85° |
| 2026-05-04 01:28 | 29.14769 | -82.44694 | 21121 ft | 496 kts | 85° |
| 2026-05-04 01:29 | 29.15193 | -82.40800 | 20646 ft | 491 kts | 85° |
| 2026-05-04 01:29 | 29.15615 | -82.36912 | 20035 ft | 490 kts | 85° |
| 2026-05-04 01:29 | 29.16033 | -82.33049 | 19491 ft | 487 kts | 85° |
| 2026-05-04 01:29 | 29.16446 | -82.29218 | 19008 ft | 483 kts | 85° |
| 2026-05-04 01:30 | 29.16857 | -82.25411 | 18518 ft | 479 kts | 85° |
| 2026-05-04 01:30 | 29.17260 | -82.21652 | 17977 ft | 475 kts | 85° |
| 2026-05-04 01:30 | 29.17659 | -82.17903 | 17447 ft | 471 kts | 85° |
| 2026-05-04 01:30 | 29.18056 | -82.14171 | 16953 ft | 466 kts | 85° |
| 2026-05-04 01:31 | 29.18447 | -82.10488 | 16433 ft | 462 kts | 85° |
| 2026-05-04 01:31 | 29.18833 | -82.06846 | 15961 ft | 457 kts | 84° |
| 2026-05-04 01:31 | 29.19213 | -82.03262 | 15238 ft | 451 kts | 84° |
| 2026-05-04 01:31 | 29.19586 | -81.99715 | 14278 ft | 444 kts | 84° |
| 2026-05-04 01:32 | 29.19950 | -81.96241 | 13406 ft | 433 kts | 83° |
| 2026-05-04 01:32 | 29.20307 | -81.92846 | 12429 ft | 425 kts | 83° |
| 2026-05-04 01:32 | 29.20658 | -81.89508 | 11497 ft | 417 kts | 83° |
| 2026-05-04 01:32 | 29.20999 | -81.86246 | 10606 ft | 408 kts | 82° |
| 2026-05-04 01:33 | 29.21335 | -81.83039 | 10168 ft | 404 kts | 82° |
| 2026-05-04 01:33 | 29.21672 | -81.79833 | 10120 ft | 406 kts | 82° |
| 2026-05-04 01:33 | 29.22006 | -81.76654 | 10093 ft | 395 kts | 82° |
| 2026-05-04 01:33 | 29.22326 | -81.73579 | 9911 ft | 383 kts | 82° |
| 2026-05-04 01:34 | 29.22639 | -81.70568 | 9547 ft | 377 kts | 82° |
| 2026-05-04 01:34 | 29.22946 | -81.67612 | 9223 ft | 370 kts | 82° |
| 2026-05-04 01:34 | 29.23247 | -81.64697 | 8659 ft | 357 kts | 82° |
| 2026-05-04 01:34 | 29.23528 | -81.61983 | 8319 ft | 338 kts | 83° |
| 2026-05-04 01:35 | 29.23797 | -81.59370 | 8011 ft | 321 kts | 83° |
| 2026-05-04 01:35 | 29.24050 | -81.56899 | 7709 ft | 305 kts | 83° |
| 2026-05-04 01:35 | 29.24292 | -81.54535 | 7412 ft | 291 kts | 83° |
| 2026-05-04 01:35 | 29.24526 | -81.52256 | 6934 ft | 286 kts | 83° |
| 2026-05-04 01:36 | 29.24756 | -81.49997 | 6405 ft | 283 kts | 83° |
| 2026-05-04 01:36 | 29.24984 | -81.47766 | 5864 ft | 280 kts | 83° |
| 2026-05-04 01:36 | 29.25208 | -81.45570 | 5367 ft | 275 kts | 83° |
| 2026-05-04 01:36 | 29.25187 | -81.43403 | 4792 ft | 272 kts | 108° |
| 2026-05-04 01:37 | 29.24241 | -81.41581 | 4356 ft | 266 kts | 137° |
| 2026-05-04 01:37 | 29.22689 | -81.40508 | 4146 ft | 261 kts | 158° |
| 2026-05-04 01:37 | 29.20983 | -81.39796 | 3822 ft | 261 kts | 158° |
| 2026-05-04 01:37 | 29.19299 | -81.39032 | 3493 ft | 260 kts | 155° |
| 2026-05-04 01:38 | 29.17673 | -81.38147 | 3200 ft | 258 kts | 150° |
| 2026-05-04 01:38 | 29.16118 | -81.37137 | 2895 ft | 256 kts | 146° |
| 2026-05-04 01:38 | 29.14637 | -81.36009 | 2594 ft | 253 kts | 141° |
| 2026-05-04 01:38 | 29.13251 | -81.34783 | 2297 ft | 251 kts | 137° |
| 2026-05-04 01:39 | 29.11958 | -81.33469 | 2066 ft | 247 kts | 133° |
| 2026-05-04 01:39 | 29.10746 | -81.32062 | 1939 ft | 248 kts | 128° |
| 2026-05-04 01:39 | 29.09850 | -81.30404 | 1802 ft | 244 kts | 108° |
| 2026-05-04 01:39 | 29.09540 | -81.28518 | 1666 ft | 239 kts | 90° |
| 2026-05-04 01:40 | 29.09733 | -81.26685 | 1612 ft | 226 kts | 73° |
| 2026-05-04 01:40 | 29.10252 | -81.25048 | 1602 ft | 212 kts | 65° |
| 2026-05-04 01:40 | 29.10875 | -81.23546 | 1603 ft | 207 kts | 64° |
| 2026-05-04 01:40 | 29.11503 | -81.22068 | 1621 ft | 206 kts | 65° |
| 2026-05-04 01:41 | 29.12095 | -81.20630 | 1626 ft | 201 kts | 65° |
| 2026-05-04 01:41 | 29.12665 | -81.19215 | 1633 ft | 184 kts | 65° |
| 2026-05-04 01:41 | 29.13180 | -81.17925 | 1595 ft | 174 kts | 65° |
| 2026-05-04 01:41 | 29.13658 | -81.16729 | 1561 ft | 157 kts | 65° |
| 2026-05-04 01:42 | 29.14110 | -81.15604 | 1551 ft | 155 kts | 65° |
| 2026-05-04 01:42 | 29.14558 | -81.14487 | 1345 ft | 153 kts | 65° |
| 2026-05-04 01:42 | 29.15006 | -81.13373 | 1146 ft | 153 kts | 66° |
| 2026-05-04 01:42 | 29.15450 | -81.12265 | 952 ft | 152 kts | 65° |
| 2026-05-04 01:43 | 29.15892 | -81.11163 | 754 ft | 152 kts | 64° |
| 2026-05-04 01:43 | 29.16338 | -81.10057 | 557 ft | 153 kts | 64° |
| 2026-05-04 01:43 | 29.16785 | -81.08947 | 339 ft | 152 kts | 64° |
| 2026-05-04 01:43 | 29.17227 | -81.07849 | 131 ft | 151 kts | 64° |
| 2026-05-04 01:44 | 29.17729 | -81.06692 | 382 ft | 169 kts | 62° |
| 2026-05-04 01:44 | 29.18235 | -81.05453 | 1143 ft | 185 kts | 75° |
| 2026-05-04 01:44 | 29.18066 | -81.03915 | 1521 ft | 214 kts | 117° |
| 2026-05-04 01:44 | 29.16912 | -81.02763 | 1594 ft | 231 kts | 155° |
| 2026-05-04 01:45 | 29.15355 | -81.02257 | 1617 ft | 233 kts | 165° |
| 2026-05-04 01:45 | 29.13758 | -81.01900 | 1613 ft | 236 kts | 166° |
| 2026-05-04 01:45 | 29.10465 | -81.01225 | 2589 ft | 237 kts | 166° |
| 2026-05-04 01:46 | 29.08840 | -81.00893 | 2929 ft | 237 kts | 166° |
| 2026-05-04 01:46 | 29.07217 | -81.00560 | 2988 ft | 236 kts | 166° |
| 2026-05-04 01:46 | 29.05595 | -81.00228 | 2996 ft | 237 kts | 166° |
| 2026-05-04 01:46 | 29.03976 | -80.99899 | 2993 ft | 237 kts | 167° |
| 2026-05-04 01:47 | 29.02350 | -80.99594 | 2993 ft | 238 kts | 167° |
| 2026-05-04 01:47 | 29.00709 | -80.99358 | 2985 ft | 239 kts | 179° |
| 2026-05-04 01:47 | 28.99055 | -80.99643 | 2995 ft | 241 kts | 184° |
| 2026-05-04 01:47 | 28.97391 | -80.99670 | 2996 ft | 238 kts | 172° |
| 2026-05-04 01:48 | 28.95731 | -80.99491 | 2995 ft | 238 kts | 171° |
| 2026-05-04 01:48 | 28.94084 | -80.99299 | 2996 ft | 238 kts | 171° |
| 2026-05-04 01:48 | 28.92431 | -80.99127 | 2993 ft | 240 kts | 172° |
| 2026-05-04 01:48 | 28.90793 | -80.98975 | 2990 ft | 239 kts | 172° |
| 2026-05-04 01:49 | 28.89136 | -80.98829 | 2993 ft | 239 kts | 172° |
| 2026-05-04 01:49 | 28.87479 | -80.98917 | 2964 ft | 243 kts | 197° |
| 2026-05-04 01:49 | 28.86068 | -80.99979 | 2978 ft | 248 kts | 231° |
| 2026-05-04 01:49 | 28.85373 | -81.01759 | 2984 ft | 249 kts | 265° |
| 2026-05-04 01:50 | 28.85620 | -81.03696 | 2990 ft | 250 kts | 299° |
| 2026-05-04 01:50 | 28.86632 | -81.05397 | 3016 ft | 266 kts | 310° |
| 2026-05-04 01:50 | 28.87781 | -81.07068 | 3000 ft | 268 kts | 310° |
| 2026-05-04 01:50 | 28.88965 | -81.08783 | 2992 ft | 269 kts | 310° |
| 2026-05-04 01:51 | 28.90120 | -81.10472 | 2989 ft | 270 kts | 310° |
| 2026-05-04 01:51 | 28.91270 | -81.12169 | 2988 ft | 270 kts | 310° |
| 2026-05-04 01:51 | 28.92419 | -81.13872 | 3001 ft | 276 kts | 310° |
| 2026-05-04 01:51 | 28.93647 | -81.15693 | 3019 ft | 303 kts | 310° |
| 2026-05-04 01:52 | 28.94983 | -81.17675 | 3022 ft | 332 kts | 309° |
| 2026-05-04 01:52 | 28.96415 | -81.19809 | 3013 ft | 342 kts | 309° |
| 2026-05-04 01:52 | 28.97866 | -81.21978 | 3018 ft | 343 kts | 309° |
| 2026-05-04 01:52 | 28.99297 | -81.24122 | 2900 ft | 334 kts | 309° |
| 2026-05-04 01:53 | 29.00683 | -81.26205 | 2395 ft | 322 kts | 309° |
| 2026-05-04 01:53 | 29.02001 | -81.28184 | 2059 ft | 304 kts | 309° |
| 2026-05-04 01:53 | 29.03256 | -81.30063 | 1758 ft | 289 kts | 310° |
| 2026-05-04 01:53 | 29.04440 | -81.31833 | 1668 ft | 272 kts | 311° |
| 2026-05-04 01:54 | 29.05824 | -81.33153 | 1600 ft | 252 kts | 344° |
| 2026-05-04 01:54 | 29.07450 | -81.33253 | 1595 ft | 226 kts | 24° |
| 2026-05-04 01:54 | 29.08614 | -81.32187 | 1603 ft | 217 kts | 65° |
| 2026-05-04 01:54 | 29.08998 | -81.30536 | 1631 ft | 215 kts | 82° |
| 2026-05-04 01:55 | 29.09173 | -81.28838 | 1613 ft | 215 kts | 81° |
| 2026-05-04 01:55 | 29.09517 | -81.27169 | 1612 ft | 216 kts | 71° |
| 2026-05-04 01:55 | 29.10065 | -81.25565 | 1621 ft | 217 kts | 66° |
| 2026-05-04 01:55 | 29.10703 | -81.24002 | 1611 ft | 217 kts | 64° |
| 2026-05-04 01:56 | 29.11353 | -81.22443 | 1619 ft | 216 kts | 65° |
| 2026-05-04 01:56 | 29.11992 | -81.20876 | 1609 ft | 216 kts | 65° |
| 2026-05-04 01:56 | 29.12615 | -81.19329 | 1611 ft | 217 kts | 65° |
| 2026-05-04 01:56 | 29.13245 | -81.17755 | 1598 ft | 217 kts | 65° |
| 2026-05-04 01:57 | 29.13864 | -81.16212 | 1613 ft | 206 kts | 65° |
| 2026-05-04 01:57 | 29.14445 | -81.14766 | 1418 ft | 194 kts | 65° |
| 2026-05-04 01:57 | 29.14990 | -81.13408 | 1140 ft | 181 kts | 65° |
| 2026-05-04 01:57 | 29.15498 | -81.12144 | 908 ft | 167 kts | 65° |
| 2026-05-04 01:58 | 29.15968 | -81.10976 | 684 ft | 155 kts | 64° |
| 2026-05-04 01:58 | 29.16415 | -81.09868 | 508 ft | 153 kts | 64° |
| 2026-05-04 01:58 | 29.16852 | -81.08783 | 324 ft | 151 kts | 64° |
| 2026-05-04 01:58 | 29.17285 | -81.07688 | 110 ft | 150 kts | 65° |
| 2026-05-04 01:59 | 29.17705 | -81.06662 | 48 ft | 115 kts | 65° |
| 2026-05-04 01:59 | 29.17955 | -81.06058 | 52 ft | 50 kts | 66° |
| 2026-05-04 01:59 | 29.18023 | -81.05890 | 49 ft | 13 kts | 53° |
| 2026-05-04 01:59 | 29.18097 | -81.05820 | 51 ft | 15 kts | 36° |
| 2026-05-04 02:00 | 29.18202 | -81.05798 | 51 ft | 18 kts | 339° |
| 2026-05-04 02:00 | 29.18311 | -81.05863 | 51 ft | 17 kts | 307° |
| 2026-05-04 02:00 | 29.18323 | -81.05973 | 51 ft | 13 kts | 228° |
| 2026-05-04 02:00 | 29.18247 | -81.06026 | 50 ft | 10 kts | 243° |
| 2026-05-04 02:01 | 29.18255 | -81.06044 | 47 ft | 3 kts | 28° |
| 2026-05-04 02:01 | 29.18280 | -81.06036 | 47 ft | 5 kts | 352° |
| 2026-05-04 02:01 | 29.18296 | -81.06042 | 45 ft | 0 kts | 327° |
| 2026-05-04 02:01 | 29.18297 | -81.06043 | 45 ft | 1 kts | 330° |
| 2026-05-04 02:02 | 29.18302 | -81.06046 | 44 ft | 0 kts | 330° |
| 2026-05-04 02:02 | 29.18300 | -81.06044 | 45 ft | 0 kts | 330° |